sensor_id;sensor_type;location;lat;lon;timestamp;temperature;humidity
32524;DHT22;18965;52.242;20.886;2023-02-15T14:58:11;5.60;91.50
32524;DHT22;18965;52.242;20.886;2023-02-15T15:00:40;5.70;90.90
32524;DHT22;18965;52.242;20.886;2023-02-15T15:03:23;5.80;92.10
32524;DHT22;18965;52.242;20.886;2023-02-15T15:05:54;5.90;90.90
32524;DHT22;18965;52.242;20.886;2023-02-15T15:08:27;5.90;93.70
32524;DHT22;18965;52.242;20.886;2023-02-15T15:18:44;6.00;90.90
32524;DHT22;18965;52.242;20.886;2023-02-15T15:21:10;6.00;91.40
32524;DHT22;18965;52.242;20.886;2023-02-15T15:23:40;6.00;91.60
32524;DHT22;18965;52.242;20.886;2023-02-15T15:26:24;6.10;91.50
32524;DHT22;18965;52.242;20.886;2023-02-15T15:39:38;6.10;91.30
32524;DHT22;18965;52.242;20.886;2023-02-15T15:45:02;6.20;91.20
32524;DHT22;18965;52.242;20.886;2023-02-15T15:50:13;6.10;91.00
32524;DHT22;18965;52.242;20.886;2023-02-15T15:52:41;6.10;91.00
32524;DHT22;18965;52.242;20.886;2023-02-15T15:55:17;6.10;91.00
32524;DHT22;18965;52.242;20.886;2023-02-15T15:57:45;6.10;90.90
32524;DHT22;18965;52.242;20.886;2023-02-15T16:00:47;6.10;90.80
32524;DHT22;18965;52.242;20.886;2023-02-15T16:03:25;6.10;90.70
32524;DHT22;18965;52.242;20.886;2023-02-15T16:05:51;6.10;90.70
32524;DHT22;18965;52.242;20.886;2023-02-15T16:10:53;6.10;90.60
32524;DHT22;18965;52.242;20.886;2023-02-15T16:13:19;6.00;90.60
32524;DHT22;18965;52.242;20.886;2023-02-15T16:15:46;6.10;90.60
32524;DHT22;18965;52.242;20.886;2023-02-15T16:18:20;6.10;90.60
32524;DHT22;18965;52.242;20.886;2023-02-15T16:20:55;6.10;90.50
32524;DHT22;18965;52.242;20.886;2023-02-15T16:23:48;6.00;90.40
32524;DHT22;18965;52.242;20.886;2023-02-15T16:29:25;6.00;90.40
32524;DHT22;18965;52.242;20.886;2023-02-15T16:32:04;6.00;90.40
32524;DHT22;18965;52.242;20.886;2023-02-15T16:34:31;6.00;90.30
32524;DHT22;18965;52.242;20.886;2023-02-15T16:37:20;6.00;90.30
32524;DHT22;18965;52.242;20.886;2023-02-15T16:39:49;5.90;90.20
32524;DHT22;18965;52.242;20.886;2023-02-15T16:42:16;5.90;90.00
32524;DHT22;18965;52.242;20.886;2023-02-15T16:44:45;5.90;90.00
32524;DHT22;18965;52.242;20.886;2023-02-15T16:47:21;5.80;90.00
32524;DHT22;18965;52.242;20.886;2023-02-15T16:49:51;5.80;90.10
32524;DHT22;18965;52.242;20.886;2023-02-15T16:52:23;5.80;90.00
32524;DHT22;18965;52.242;20.886;2023-02-15T16:54:58;5.70;90.00
32524;DHT22;18965;52.242;20.886;2023-02-15T16:57:27;5.70;90.00
32524;DHT22;18965;52.242;20.886;2023-02-15T16:59:56;4.80;89.60
32524;DHT22;18965;52.242;20.886;2023-02-15T17:02:28;5.80;90.10
32524;DHT22;18965;52.242;20.886;2023-02-15T17:07:48;5.80;90.20
32524;DHT22;18965;52.242;20.886;2023-02-15T17:11:00;5.80;89.90
32524;DHT22;18965;52.242;20.886;2023-02-15T17:13:28;5.80;89.60
32524;DHT22;18965;52.242;20.886;2023-02-15T17:18:34;5.70;90.00
32524;DHT22;18965;52.242;20.886;2023-02-15T17:21:12;5.70;88.80
32524;DHT22;18965;52.242;20.886;2023-02-15T17:23:45;5.60;89.20
32524;DHT22;18965;52.242;20.886;2023-02-15T17:26:23;5.50;89.20
32524;DHT22;18965;52.242;20.886;2023-02-15T17:28:52;5.50;88.70
32524;DHT22;18965;52.242;20.886;2023-02-15T17:31:20;5.50;89.00
32524;DHT22;18965;52.242;20.886;2023-02-15T17:33:47;5.50;88.90
32524;DHT22;18965;52.242;20.886;2023-02-15T17:36:21;5.60;89.00
32524;DHT22;18965;52.242;20.886;2023-02-15T17:41:25;5.60;88.90
32524;DHT22;18965;52.242;20.886;2023-02-15T17:43:51;5.50;88.50
32524;DHT22;18965;52.242;20.886;2023-02-15T17:46:17;5.60;89.00
32524;DHT22;18965;52.242;20.886;2023-02-15T17:48:51;5.50;88.50
32524;DHT22;18965;52.242;20.886;2023-02-15T17:51:18;5.60;88.50
32524;DHT22;18965;52.242;20.886;2023-02-15T17:53:45;5.60;88.30
32524;DHT22;18965;52.242;20.886;2023-02-15T17:56:35;5.60;88.70
32524;DHT22;18965;52.242;20.886;2023-02-15T17:59:01;5.60;88.30
32524;DHT22;18965;52.242;20.886;2023-02-15T18:01:32;5.60;88.30
32524;DHT22;18965;52.242;20.886;2023-02-15T18:04:17;5.60;88.00
32524;DHT22;18965;52.242;20.886;2023-02-15T18:07:01;5.60;87.90
32524;DHT22;18965;52.242;20.886;2023-02-15T18:09:45;5.60;87.80
32524;DHT22;18965;52.242;20.886;2023-02-15T18:12:34;5.60;88.00
32524;DHT22;18965;52.242;20.886;2023-02-15T18:15:04;5.60;87.70
32524;DHT22;18965;52.242;20.886;2023-02-15T18:17:42;5.60;87.30
32524;DHT22;18965;52.242;20.886;2023-02-15T18:20:19;5.60;87.30
32524;DHT22;18965;52.242;20.886;2023-02-15T18:22:45;5.70;87.70
32524;DHT22;18965;52.242;20.886;2023-02-15T18:25:16;5.50;87.30
32524;DHT22;18965;52.242;20.886;2023-02-15T18:27:44;5.50;87.40
32524;DHT22;18965;52.242;20.886;2023-02-15T18:30:20;5.50;88.80
32524;DHT22;18965;52.242;20.886;2023-02-15T18:32:49;5.40;86.80
32524;DHT22;18965;52.242;20.886;2023-02-15T18:35:18;5.50;87.10
32524;DHT22;18965;52.242;20.886;2023-02-15T18:37:44;5.50;87.10
32524;DHT22;18965;52.242;20.886;2023-02-15T18:40:15;5.40;87.00
32524;DHT22;18965;52.242;20.886;2023-02-15T18:42:42;5.50;87.20
32524;DHT22;18965;52.242;20.886;2023-02-15T18:47:44;5.50;87.10
32524;DHT22;18965;52.242;20.886;2023-02-15T18:50:12;5.50;87.00
32524;DHT22;18965;52.242;20.886;2023-02-15T18:52:38;5.50;86.80
32524;DHT22;18965;52.242;20.886;2023-02-15T18:57:48;5.50;86.60
32524;DHT22;18965;52.242;20.886;2023-02-15T19:02:45;5.50;86.80
32524;DHT22;18965;52.242;20.886;2023-02-15T19:05:11;5.50;86.80
32524;DHT22;18965;52.242;20.886;2023-02-15T19:07:37;5.50;86.90
32524;DHT22;18965;52.242;20.886;2023-02-15T19:10:05;5.60;86.80
32524;DHT22;18965;52.242;20.886;2023-02-15T19:12:32;5.60;86.70
32524;DHT22;18965;52.242;20.886;2023-02-15T19:14:58;5.60;87.30
32524;DHT22;18965;52.242;20.886;2023-02-15T19:17:24;5.60;86.50
32524;DHT22;18965;52.242;20.886;2023-02-15T19:19:51;5.60;86.50
32524;DHT22;18965;52.242;20.886;2023-02-15T19:24:50;5.60;86.50
32524;DHT22;18965;52.242;20.886;2023-02-15T19:27:27;5.70;86.80
32524;DHT22;18965;52.242;20.886;2023-02-15T19:29:56;5.70;86.40
32524;DHT22;18965;52.242;20.886;2023-02-15T19:32:22;5.60;86.00
32524;DHT22;18965;52.242;20.886;2023-02-15T19:34:48;5.60;86.00
32524;DHT22;18965;52.242;20.886;2023-02-15T19:37:26;5.60;86.90
32524;DHT22;18965;52.242;20.886;2023-02-15T19:39:55;5.70;86.20
32524;DHT22;18965;52.242;20.886;2023-02-15T19:42:22;5.70;86.00
32524;DHT22;18965;52.242;20.886;2023-02-15T19:44:49;5.70;85.90
32524;DHT22;18965;52.242;20.886;2023-02-15T19:47:15;5.70;85.80
32524;DHT22;18965;52.242;20.886;2023-02-15T19:49:41;5.70;85.70
32524;DHT22;18965;52.242;20.886;2023-02-15T19:52:18;5.70;85.80
32524;DHT22;18965;52.242;20.886;2023-02-15T19:54:45;5.70;85.70
32524;DHT22;18965;52.242;20.886;2023-02-15T19:57:11;5.70;85.60
32524;DHT22;18965;52.242;20.886;2023-02-15T19:59:38;5.70;85.70
32524;DHT22;18965;52.242;20.886;2023-02-15T20:02:04;5.70;86.40
32524;DHT22;18965;52.242;20.886;2023-02-15T20:04:30;5.70;85.70
32524;DHT22;18965;52.242;20.886;2023-02-15T20:06:59;5.70;85.60
32524;DHT22;18965;52.242;20.886;2023-02-15T20:09:30;4.90;85.00
32524;DHT22;18965;52.242;20.886;2023-02-15T20:11:56;5.70;85.30
32524;DHT22;18965;52.242;20.886;2023-02-15T20:14:22;5.60;86.00
32524;DHT22;18965;52.242;20.886;2023-02-15T20:16:49;5.60;85.10
32524;DHT22;18965;52.242;20.886;2023-02-15T20:19:15;5.60;85.10
32524;DHT22;18965;52.242;20.886;2023-02-15T20:21:44;5.60;85.00
32524;DHT22;18965;52.242;20.886;2023-02-15T20:24:16;5.50;84.90
32524;DHT22;18965;52.242;20.886;2023-02-15T20:26:43;5.40;84.80
32524;DHT22;18965;52.242;20.886;2023-02-15T20:29:16;5.40;84.70
32524;DHT22;18965;52.242;20.886;2023-02-15T20:31:43;5.40;84.70
32524;DHT22;18965;52.242;20.886;2023-02-15T20:34:09;5.30;84.60
32524;DHT22;18965;52.242;20.886;2023-02-15T20:36:36;5.20;84.60
32524;DHT22;18965;52.242;20.886;2023-02-15T20:39:10;5.20;84.60
32524;DHT22;18965;52.242;20.886;2023-02-15T20:41:37;5.10;84.50
32524;DHT22;18965;52.242;20.886;2023-02-15T20:46:45;5.00;84.50
32524;DHT22;18965;52.242;20.886;2023-02-15T20:49:10;4.90;84.50
32524;DHT22;18965;52.242;20.886;2023-02-15T20:51:36;4.90;84.50
32524;DHT22;18965;52.242;20.886;2023-02-15T20:54:11;4.90;84.50
32524;DHT22;18965;52.242;20.886;2023-02-15T20:56:37;4.80;84.60
32524;DHT22;18965;52.242;20.886;2023-02-15T20:59:27;4.80;85.30
32524;DHT22;18965;52.242;20.886;2023-02-15T21:01:56;4.70;84.50
32524;DHT22;18965;52.242;20.886;2023-02-15T21:04:27;4.70;84.60
32524;DHT22;18965;52.242;20.886;2023-02-15T21:06:54;4.60;84.60
32524;DHT22;18965;52.242;20.886;2023-02-15T21:09:19;4.50;84.60
32524;DHT22;18965;52.242;20.886;2023-02-15T21:11:46;4.50;83.90
32524;DHT22;18965;52.242;20.886;2023-02-15T21:14:19;4.40;84.70
32524;DHT22;18965;52.242;20.886;2023-02-15T21:16:45;4.40;84.80
32524;DHT22;18965;52.242;20.886;2023-02-15T21:19:16;4.40;84.80
32524;DHT22;18965;52.242;20.886;2023-02-15T21:21:43;3.50;84.20
32524;DHT22;18965;52.242;20.886;2023-02-15T21:24:22;4.30;84.80
32524;DHT22;18965;52.242;20.886;2023-02-15T21:26:49;4.30;84.80
32524;DHT22;18965;52.242;20.886;2023-02-15T21:29:24;4.20;84.80
32524;DHT22;18965;52.242;20.886;2023-02-15T21:31:50;4.20;84.90
32524;DHT22;18965;52.242;20.886;2023-02-15T21:34:16;4.10;84.90
32524;DHT22;18965;52.242;20.886;2023-02-15T21:36:46;4.10;84.90
32524;DHT22;18965;52.242;20.886;2023-02-15T21:39:22;4.10;84.80
32524;DHT22;18965;52.242;20.886;2023-02-15T21:41:50;4.00;84.80
32524;DHT22;18965;52.242;20.886;2023-02-15T21:44:35;4.00;84.70
32524;DHT22;18965;52.242;20.886;2023-02-15T21:47:25;2.90;84.10
32524;DHT22;18965;52.242;20.886;2023-02-15T21:50:12;3.90;84.80
32524;DHT22;18965;52.242;20.886;2023-02-15T21:52:58;3.90;84.80
32524;DHT22;18965;52.242;20.886;2023-02-15T21:55:24;3.80;85.20
32524;DHT22;18965;52.242;20.886;2023-02-15T21:57:50;3.80;84.80
32524;DHT22;18965;52.242;20.886;2023-02-15T22:00:21;3.80;84.90
32524;DHT22;18965;52.242;20.886;2023-02-15T22:02:48;3.80;84.90
32524;DHT22;18965;52.242;20.886;2023-02-15T22:05:18;3.70;84.90
32524;DHT22;18965;52.242;20.886;2023-02-15T22:07:45;3.70;84.90
32524;DHT22;18965;52.242;20.886;2023-02-15T22:10:11;3.70;84.90
32524;DHT22;18965;52.242;20.886;2023-02-15T22:12:38;3.60;84.80
32524;DHT22;18965;52.242;20.886;2023-02-15T22:15:05;3.60;84.80
32524;DHT22;18965;52.242;20.886;2023-02-15T22:17:31;3.60;84.90
32524;DHT22;18965;52.242;20.886;2023-02-15T22:19:58;3.60;85.00
32524;DHT22;18965;52.242;20.886;2023-02-15T22:22:24;3.50;85.00
32524;DHT22;18965;52.242;20.886;2023-02-15T22:24:50;3.50;85.20
32524;DHT22;18965;52.242;20.886;2023-02-15T22:27:19;3.50;85.10
32524;DHT22;18965;52.242;20.886;2023-02-15T22:29:45;3.50;85.10
32524;DHT22;18965;52.242;20.886;2023-02-15T22:32:19;3.50;85.10
32524;DHT22;18965;52.242;20.886;2023-02-15T22:34:45;3.40;85.10
32524;DHT22;18965;52.242;20.886;2023-02-15T22:37:11;3.40;85.10
32524;DHT22;18965;52.242;20.886;2023-02-15T22:39:37;3.40;85.10
32524;DHT22;18965;52.242;20.886;2023-02-15T22:42:03;3.40;85.20
32524;DHT22;18965;52.242;20.886;2023-02-15T22:44:32;3.40;85.20
32524;DHT22;18965;52.242;20.886;2023-02-15T22:46:59;3.40;85.40
32524;DHT22;18965;52.242;20.886;2023-02-15T22:49:25;3.30;85.50
32524;DHT22;18965;52.242;20.886;2023-02-15T22:51:51;3.30;85.30
32524;DHT22;18965;52.242;20.886;2023-02-15T22:54:18;3.30;85.50
32524;DHT22;18965;52.242;20.886;2023-02-15T22:56:51;3.30;85.50
32524;DHT22;18965;52.242;20.886;2023-02-15T22:59:23;3.30;85.60
32524;DHT22;18965;52.242;20.886;2023-02-15T23:01:51;3.30;85.60
32524;DHT22;18965;52.242;20.886;2023-02-15T23:04:20;3.30;85.60
32524;DHT22;18965;52.242;20.886;2023-02-15T23:06:47;3.20;85.60
32524;DHT22;18965;52.242;20.886;2023-02-15T23:09:13;3.30;85.80
32524;DHT22;18965;52.242;20.886;2023-02-15T23:11:40;3.20;85.80
32524;DHT22;18965;52.242;20.886;2023-02-15T23:16:43;3.20;85.80
32524;DHT22;18965;52.242;20.886;2023-02-15T23:19:11;3.20;85.60
32524;DHT22;18965;52.242;20.886;2023-02-15T23:21:39;3.20;85.80
32524;DHT22;18965;52.242;20.886;2023-02-15T23:24:31;3.20;85.60
32524;DHT22;18965;52.242;20.886;2023-02-15T23:26:59;3.10;85.80
32524;DHT22;18965;52.242;20.886;2023-02-15T23:29:45;3.10;85.60
32524;DHT22;18965;52.242;20.886;2023-02-15T23:32:12;3.10;85.60
32524;DHT22;18965;52.242;20.886;2023-02-15T23:34:38;3.00;85.70
32524;DHT22;18965;52.242;20.886;2023-02-15T23:37:03;3.00;85.50
32524;DHT22;18965;52.242;20.886;2023-02-15T23:39:29;3.00;85.50
32524;DHT22;18965;52.242;20.886;2023-02-15T23:42:15;3.00;85.50
32524;DHT22;18965;52.242;20.886;2023-02-15T23:44:43;3.00;85.50
32524;DHT22;18965;52.242;20.886;2023-02-15T23:49:45;2.60;85.70
32524;DHT22;18965;52.242;20.886;2023-02-15T23:52:10;2.80;85.80
32524;DHT22;18965;52.242;20.886;2023-02-15T23:54:36;2.90;86.00
32524;DHT22;18965;52.242;20.886;2023-02-15T23:57:02;2.80;85.90
32524;DHT22;18965;52.242;20.886;2023-02-15T23:59:30;2.80;85.70
